sensor_id;sensor_type;location;lat;lon;timestamp;P1;durP1;ratioP1;P2;durP2;ratioP2
53971;SDS011;40530;53.062;6.078;2022-09-09T00:00:15;13.50;;;5.80;;
53971;SDS011;40530;53.062;6.078;2022-09-09T00:05:41;8.95;;;6.03;;
53971;SDS011;40530;53.062;6.078;2022-09-09T00:08:12;15.30;;;6.07;;
53971;SDS011;40530;53.062;6.078;2022-09-09T00:10:39;9.07;;;6.13;;
53971;SDS011;40530;53.062;6.078;2022-09-09T00:13:15;11.43;;;6.20;;
53971;SDS011;40530;53.062;6.078;2022-09-09T00:21:13;13.07;;;6.10;;
53971;SDS011;40530;53.062;6.078;2022-09-09T00:23:51;9.30;;;6.00;;
53971;SDS011;40530;53.062;6.078;2022-09-09T00:26:25;8.32;;;6.45;;
53971;SDS011;40530;53.062;6.078;2022-09-09T00:28:58;8.95;;;5.75;;
53971;SDS011;40530;53.062;6.078;2022-09-09T00:31:29;11.38;;;6.20;;
53971;SDS011;40530;53.062;6.078;2022-09-09T00:33:57;11.02;;;6.70;;
53971;SDS011;40530;53.062;6.078;2022-09-09T00:36:24;10.50;;;6.45;;
53971;SDS011;40530;53.062;6.078;2022-09-09T00:38:58;8.85;;;5.90;;
53971;SDS011;40530;53.062;6.078;2022-09-09T00:44:13;9.25;;;6.13;;
53971;SDS011;40530;53.062;6.078;2022-09-09T00:49:19;10.43;;;6.05;;
53971;SDS011;40530;53.062;6.078;2022-09-09T00:54:26;10.73;;;5.85;;
53971;SDS011;40530;53.062;6.078;2022-09-09T00:57:10;9.95;;;5.70;;
53971;SDS011;40530;53.062;6.078;2022-09-09T01:02:13;10.88;;;5.80;;
53971;SDS011;40530;53.062;6.078;2022-09-09T01:04:41;7.45;;;5.60;;
53971;SDS011;40530;53.062;6.078;2022-09-09T01:07:27;8.88;;;5.65;;
53971;SDS011;40530;53.062;6.078;2022-09-09T01:12:28;10.57;;;5.20;;
53971;SDS011;40530;53.062;6.078;2022-09-09T01:17:44;9.65;;;4.97;;
53971;SDS011;40530;53.062;6.078;2022-09-09T01:20:17;9.20;;;5.57;;
53971;SDS011;40530;53.062;6.078;2022-09-09T01:25:21;11.27;;;4.40;;
53971;SDS011;40530;53.062;6.078;2022-09-09T01:27:51;11.73;;;4.82;;
53971;SDS011;40530;53.062;6.078;2022-09-09T01:30:18;10.48;;;5.00;;
53971;SDS011;40530;53.062;6.078;2022-09-09T01:32:47;12.18;;;4.47;;
53971;SDS011;40530;53.062;6.078;2022-09-09T01:37:58;8.00;;;4.65;;
53971;SDS011;40530;53.062;6.078;2022-09-09T01:40:25;10.73;;;4.45;;
53971;SDS011;40530;53.062;6.078;2022-09-09T01:42:51;7.38;;;4.72;;
53971;SDS011;40530;53.062;6.078;2022-09-09T01:45:17;5.65;;;4.45;;
53971;SDS011;40530;53.062;6.078;2022-09-09T01:47:44;7.55;;;5.13;;
53971;SDS011;40530;53.062;6.078;2022-09-09T01:50:11;15.13;;;5.00;;
53971;SDS011;40530;53.062;6.078;2022-09-09T01:52:39;7.28;;;5.20;;
53971;SDS011;40530;53.062;6.078;2022-09-09T01:55:05;11.50;;;4.55;;
53971;SDS011;40530;53.062;6.078;2022-09-09T01:57:33;8.82;;;5.68;;
53971;SDS011;40530;53.062;6.078;2022-09-09T02:05:10;8.80;;;5.53;;
53971;SDS011;40530;53.062;6.078;2022-09-09T02:07:48;9.45;;;5.60;;
53971;SDS011;40530;53.062;6.078;2022-09-09T02:12:44;13.73;;;5.80;;
53971;SDS011;40530;53.062;6.078;2022-09-09T02:15:16;10.77;;;5.63;;
53971;SDS011;40530;53.062;6.078;2022-09-09T02:17:43;8.65;;;6.05;;
53971;SDS011;40530;53.062;6.078;2022-09-09T02:20:12;16.02;;;6.95;;
53971;SDS011;40530;53.062;6.078;2022-09-09T02:22:39;8.65;;;6.15;;
53971;SDS011;40530;53.062;6.078;2022-09-09T02:25:08;7.60;;;6.05;;
53971;SDS011;40530;53.062;6.078;2022-09-09T02:27:35;10.10;;;6.07;;
53971;SDS011;40530;53.062;6.078;2022-09-09T02:30:01;10.07;;;6.65;;
53971;SDS011;40530;53.062;6.078;2022-09-09T02:32:29;14.90;;;6.93;;
53971;SDS011;40530;53.062;6.078;2022-09-09T02:34:58;12.80;;;6.57;;
53971;SDS011;40530;53.062;6.078;2022-09-09T02:37:27;10.30;;;6.72;;
53971;SDS011;40530;53.062;6.078;2022-09-09T02:39:55;12.90;;;5.72;;
53971;SDS011;40530;53.062;6.078;2022-09-09T02:42:21;9.73;;;6.18;;
53971;SDS011;40530;53.062;6.078;2022-09-09T02:44:47;10.20;;;6.82;;
53971;SDS011;40530;53.062;6.078;2022-09-09T02:47:21;8.60;;;6.85;;
53971;SDS011;40530;53.062;6.078;2022-09-09T02:52:26;18.13;;;7.53;;
53971;SDS011;40530;53.062;6.078;2022-09-09T02:54:57;12.55;;;7.70;;
53971;SDS011;40530;53.062;6.078;2022-09-09T02:57:26;14.52;;;7.55;;
53971;SDS011;40530;53.062;6.078;2022-09-09T02:59:52;12.40;;;6.93;;
53971;SDS011;40530;53.062;6.078;2022-09-09T03:02:19;10.45;;;6.93;;
53971;SDS011;40530;53.062;6.078;2022-09-09T03:04:45;12.00;;;7.28;;
53971;SDS011;40530;53.062;6.078;2022-09-09T03:07:16;12.13;;;7.43;;
53971;SDS011;40530;53.062;6.078;2022-09-09T03:09:42;13.40;;;7.57;;
53971;SDS011;40530;53.062;6.078;2022-09-09T03:12:08;9.85;;;7.30;;
53971;SDS011;40530;53.062;6.078;2022-09-09T03:14:36;15.25;;;8.60;;
53971;SDS011;40530;53.062;6.078;2022-09-09T03:17:03;11.13;;;7.47;;
53971;SDS011;40530;53.062;6.078;2022-09-09T03:19:29;11.70;;;7.95;;
53971;SDS011;40530;53.062;6.078;2022-09-09T03:21:55;15.27;;;9.45;;
53971;SDS011;40530;53.062;6.078;2022-09-09T03:24:21;15.07;;;8.68;;
53971;SDS011;40530;53.062;6.078;2022-09-09T03:26:47;11.32;;;8.63;;
53971;SDS011;40530;53.062;6.078;2022-09-09T03:29:15;11.70;;;8.70;;
53971;SDS011;40530;53.062;6.078;2022-09-09T03:31:42;19.10;;;9.02;;
53971;SDS011;40530;53.062;6.078;2022-09-09T03:34:08;15.20;;;8.57;;
53971;SDS011;40530;53.062;6.078;2022-09-09T03:36:34;16.73;;;8.68;;
53971;SDS011;40530;53.062;6.078;2022-09-09T03:39:00;17.40;;;9.20;;
53971;SDS011;40530;53.062;6.078;2022-09-09T03:41:28;15.75;;;8.90;;
53971;SDS011;40530;53.062;6.078;2022-09-09T03:43:54;18.08;;;9.52;;
53971;SDS011;40530;53.062;6.078;2022-09-09T03:46:21;15.90;;;8.23;;
53971;SDS011;40530;53.062;6.078;2022-09-09T03:48:48;11.90;;;9.13;;
53971;SDS011;40530;53.062;6.078;2022-09-09T03:51:14;15.40;;;9.52;;
53971;SDS011;40530;53.062;6.078;2022-09-09T03:53:41;12.93;;;8.18;;
53971;SDS011;40530;53.062;6.078;2022-09-09T03:56:08;15.82;;;8.88;;
53971;SDS011;40530;53.062;6.078;2022-09-09T03:58:34;13.68;;;8.73;;
53971;SDS011;40530;53.062;6.078;2022-09-09T04:01:05;16.13;;;8.73;;
53971;SDS011;40530;53.062;6.078;2022-09-09T04:03:33;11.27;;;7.82;;
53971;SDS011;40530;53.062;6.078;2022-09-09T04:06:00;14.50;;;8.40;;
53971;SDS011;40530;53.062;6.078;2022-09-09T04:08:27;14.88;;;9.25;;
53971;SDS011;40530;53.062;6.078;2022-09-09T04:10:53;14.25;;;8.95;;
53971;SDS011;40530;53.062;6.078;2022-09-09T04:13:23;15.63;;;8.25;;
53971;SDS011;40530;53.062;6.078;2022-09-09T04:15:50;12.98;;;8.27;;
53971;SDS011;40530;53.062;6.078;2022-09-09T04:18:17;13.02;;;8.30;;
53971;SDS011;40530;53.062;6.078;2022-09-09T04:20:45;13.48;;;8.23;;
53971;SDS011;40530;53.062;6.078;2022-09-09T04:23:11;14.32;;;8.75;;
53971;SDS011;40530;53.062;6.078;2022-09-09T04:25:45;13.05;;;8.45;;
53971;SDS011;40530;53.062;6.078;2022-09-09T04:28:12;18.02;;;8.98;;
53971;SDS011;40530;53.062;6.078;2022-09-09T04:30:38;15.80;;;10.27;;
53971;SDS011;40530;53.062;6.078;2022-09-09T04:33:05;16.35;;;8.02;;
53971;SDS011;40530;53.062;6.078;2022-09-09T04:35:31;12.45;;;8.65;;
53971;SDS011;40530;53.062;6.078;2022-09-09T04:37:58;19.17;;;8.68;;
53971;SDS011;40530;53.062;6.078;2022-09-09T04:40:24;14.13;;;8.70;;
53971;SDS011;40530;53.062;6.078;2022-09-09T04:42:50;11.75;;;8.45;;
53971;SDS011;40530;53.062;6.078;2022-09-09T04:45:17;11.07;;;8.07;;
53971;SDS011;40530;53.062;6.078;2022-09-09T04:47:43;16.35;;;9.52;;
53971;SDS011;40530;53.062;6.078;2022-09-09T04:50:09;17.38;;;7.85;;
53971;SDS011;40530;53.062;6.078;2022-09-09T04:52:36;15.65;;;8.68;;
53971;SDS011;40530;53.062;6.078;2022-09-09T04:55:03;12.50;;;9.10;;
53971;SDS011;40530;53.062;6.078;2022-09-09T04:57:29;11.32;;;7.57;;
53971;SDS011;40530;53.062;6.078;2022-09-09T04:59:58;12.77;;;9.73;;
53971;SDS011;40530;53.062;6.078;2022-09-09T05:02:25;19.00;;;14.93;;
53971;SDS011;40530;53.062;6.078;2022-09-09T05:04:51;12.50;;;9.30;;
53971;SDS011;40530;53.062;6.078;2022-09-09T05:07:17;12.35;;;9.25;;
53971;SDS011;40530;53.062;6.078;2022-09-09T05:09:43;14.10;;;9.30;;
53971;SDS011;40530;53.062;6.078;2022-09-09T05:12:10;17.35;;;10.48;;
53971;SDS011;40530;53.062;6.078;2022-09-09T05:14:36;15.90;;;10.60;;
53971;SDS011;40530;53.062;6.078;2022-09-09T05:17:02;12.00;;;9.65;;
53971;SDS011;40530;53.062;6.078;2022-09-09T05:19:29;17.10;;;10.82;;
53971;SDS011;40530;53.062;6.078;2022-09-09T05:21:56;12.75;;;9.70;;
53971;SDS011;40530;53.062;6.078;2022-09-09T05:24:22;15.73;;;10.82;;
53971;SDS011;40530;53.062;6.078;2022-09-09T05:26:48;15.32;;;9.50;;
53971;SDS011;40530;53.062;6.078;2022-09-09T05:29:14;14.18;;;10.10;;
53971;SDS011;40530;53.062;6.078;2022-09-09T05:31:44;13.90;;;11.10;;
53971;SDS011;40530;53.062;6.078;2022-09-09T05:34:10;19.75;;;10.27;;
53971;SDS011;40530;53.062;6.078;2022-09-09T05:36:36;14.38;;;10.75;;
53971;SDS011;40530;53.062;6.078;2022-09-09T05:39:02;16.17;;;9.88;;
53971;SDS011;40530;53.062;6.078;2022-09-09T05:41:29;17.45;;;10.70;;
53971;SDS011;40530;53.062;6.078;2022-09-09T05:43:56;13.77;;;9.68;;
53971;SDS011;40530;53.062;6.078;2022-09-09T05:46:26;12.55;;;9.38;;
53971;SDS011;40530;53.062;6.078;2022-09-09T05:48:52;17.23;;;10.43;;
53971;SDS011;40530;53.062;6.078;2022-09-09T05:51:20;18.55;;;9.88;;
53971;SDS011;40530;53.062;6.078;2022-09-09T05:53:47;12.32;;;9.18;;
53971;SDS011;40530;53.062;6.078;2022-09-09T05:56:14;14.75;;;9.35;;
53971;SDS011;40530;53.062;6.078;2022-09-09T05:58:42;14.50;;;8.55;;
53971;SDS011;40530;53.062;6.078;2022-09-09T06:01:18;13.82;;;8.30;;
53971;SDS011;40530;53.062;6.078;2022-09-09T06:03:45;13.07;;;8.98;;
53971;SDS011;40530;53.062;6.078;2022-09-09T06:06:13;17.00;;;11.35;;
53971;SDS011;40530;53.062;6.078;2022-09-09T06:08:40;47.58;;;32.38;;
53971;SDS011;40530;53.062;6.078;2022-09-09T06:11:09;16.10;;;9.68;;
53971;SDS011;40530;53.062;6.078;2022-09-09T06:13:36;15.15;;;8.50;;
53971;SDS011;40530;53.062;6.078;2022-09-09T06:16:14;13.05;;;8.43;;
53971;SDS011;40530;53.062;6.078;2022-09-09T06:18:41;13.13;;;8.93;;
53971;SDS011;40530;53.062;6.078;2022-09-09T06:21:17;10.40;;;9.10;;
53971;SDS011;40530;53.062;6.078;2022-09-09T06:23:43;13.55;;;9.02;;
53971;SDS011;40530;53.062;6.078;2022-09-09T06:26:11;11.85;;;8.90;;
53971;SDS011;40530;53.062;6.078;2022-09-09T06:28:37;16.55;;;9.05;;
53971;SDS011;40530;53.062;6.078;2022-09-09T06:31:04;15.43;;;10.27;;
53971;SDS011;40530;53.062;6.078;2022-09-09T06:33:31;12.82;;;9.25;;
53971;SDS011;40530;53.062;6.078;2022-09-09T06:35:57;15.13;;;9.18;;
53971;SDS011;40530;53.062;6.078;2022-09-09T06:38:23;10.60;;;9.02;;
53971;SDS011;40530;53.062;6.078;2022-09-09T06:40:51;18.30;;;10.18;;
53971;SDS011;40530;53.062;6.078;2022-09-09T06:43:17;12.85;;;9.60;;
53971;SDS011;40530;53.062;6.078;2022-09-09T06:45:52;17.08;;;9.35;;
53971;SDS011;40530;53.062;6.078;2022-09-09T06:48:18;15.15;;;9.52;;
53971;SDS011;40530;53.062;6.078;2022-09-09T06:50:44;14.55;;;9.75;;
53971;SDS011;40530;53.062;6.078;2022-09-09T06:53:10;18.30;;;10.27;;
53971;SDS011;40530;53.062;6.078;2022-09-09T06:55:36;14.10;;;8.88;;
53971;SDS011;40530;53.062;6.078;2022-09-09T06:58:02;13.07;;;8.45;;
53971;SDS011;40530;53.062;6.078;2022-09-09T07:00:28;14.10;;;8.02;;
53971;SDS011;40530;53.062;6.078;2022-09-09T07:02:55;17.05;;;9.30;;
53971;SDS011;40530;53.062;6.078;2022-09-09T07:05:21;40.13;;;12.75;;
53971;SDS011;40530;53.062;6.078;2022-09-09T07:07:47;24.02;;;8.70;;
53971;SDS011;40530;53.062;6.078;2022-09-09T07:10:13;10.20;;;7.30;;
53971;SDS011;40530;53.062;6.078;2022-09-09T07:12:39;24.90;;;17.23;;
53971;SDS011;40530;53.062;6.078;2022-09-09T07:15:05;15.00;;;8.05;;
53971;SDS011;40530;53.062;6.078;2022-09-09T07:17:31;17.40;;;7.93;;
53971;SDS011;40530;53.062;6.078;2022-09-09T07:19:57;12.43;;;7.32;;
53971;SDS011;40530;53.062;6.078;2022-09-09T07:22:23;9.02;;;6.32;;
53971;SDS011;40530;53.062;6.078;2022-09-09T07:24:50;7.95;;;6.05;;
53971;SDS011;40530;53.062;6.078;2022-09-09T07:27:16;10.73;;;6.25;;
53971;SDS011;40530;53.062;6.078;2022-09-09T07:29:41;8.07;;;6.00;;
53971;SDS011;40530;53.062;6.078;2022-09-09T07:32:07;9.20;;;6.28;;
53971;SDS011;40530;53.062;6.078;2022-09-09T07:34:34;8.55;;;5.35;;
53971;SDS011;40530;53.062;6.078;2022-09-09T07:37:00;9.75;;;5.93;;
53971;SDS011;40530;53.062;6.078;2022-09-09T07:39:26;8.05;;;5.22;;
53971;SDS011;40530;53.062;6.078;2022-09-09T07:41:53;11.38;;;5.43;;
53971;SDS011;40530;53.062;6.078;2022-09-09T07:44:23;7.90;;;5.15;;
53971;SDS011;40530;53.062;6.078;2022-09-09T07:46:52;8.50;;;4.82;;
53971;SDS011;40530;53.062;6.078;2022-09-09T07:49:19;10.50;;;5.10;;
53971;SDS011;40530;53.062;6.078;2022-09-09T07:51:46;10.02;;;5.00;;
53971;SDS011;40530;53.062;6.078;2022-09-09T07:54:14;6.50;;;4.57;;
53971;SDS011;40530;53.062;6.078;2022-09-09T07:56:41;5.30;;;4.20;;
53971;SDS011;40530;53.062;6.078;2022-09-09T07:59:07;7.47;;;4.93;;
53971;SDS011;40530;53.062;6.078;2022-09-09T08:01:36;12.68;;;4.80;;
53971;SDS011;40530;53.062;6.078;2022-09-09T08:04:05;6.25;;;3.95;;
53971;SDS011;40530;53.062;6.078;2022-09-09T08:06:33;9.43;;;4.25;;
53971;SDS011;40530;53.062;6.078;2022-09-09T08:09:00;11.48;;;5.40;;
53971;SDS011;40530;53.062;6.078;2022-09-09T08:11:27;11.80;;;5.00;;
53971;SDS011;40530;53.062;6.078;2022-09-09T08:13:53;12.70;;;5.00;;
53971;SDS011;40530;53.062;6.078;2022-09-09T08:16:21;13.65;;;4.88;;
53971;SDS011;40530;53.062;6.078;2022-09-09T08:18:48;22.65;;;5.90;;
53971;SDS011;40530;53.062;6.078;2022-09-09T08:21:18;8.43;;;4.43;;
53971;SDS011;40530;53.062;6.078;2022-09-09T08:23:45;9.75;;;4.50;;
53971;SDS011;40530;53.062;6.078;2022-09-09T08:28:38;10.40;;;4.70;;
53971;SDS011;40530;53.062;6.078;2022-09-09T08:31:12;10.23;;;4.13;;
53971;SDS011;40530;53.062;6.078;2022-09-09T08:33:39;12.65;;;5.18;;
53971;SDS011;40530;53.062;6.078;2022-09-09T08:36:06;6.63;;;4.25;;
53971;SDS011;40530;53.062;6.078;2022-09-09T08:38:35;12.93;;;6.38;;
53971;SDS011;40530;53.062;6.078;2022-09-09T08:43:47;9.20;;;4.15;;
53971;SDS011;40530;53.062;6.078;2022-09-09T08:46:26;10.55;;;3.33;;
53971;SDS011;40530;53.062;6.078;2022-09-09T08:48:59;11.70;;;3.75;;
53971;SDS011;40530;53.062;6.078;2022-09-09T08:51:30;11.65;;;3.75;;
53971;SDS011;40530;53.062;6.078;2022-09-09T08:53:57;8.35;;;3.08;;
53971;SDS011;40530;53.062;6.078;2022-09-09T08:56:27;9.65;;;3.35;;
53971;SDS011;40530;53.062;6.078;2022-09-09T08:58:54;6.63;;;2.30;;
53971;SDS011;40530;53.062;6.078;2022-09-09T09:04:05;7.80;;;3.15;;
53971;SDS011;40530;53.062;6.078;2022-09-09T09:11:58;14.80;;;3.08;;
53971;SDS011;40530;53.062;6.078;2022-09-09T09:14:29;8.13;;;2.63;;
53971;SDS011;40530;53.062;6.078;2022-09-09T09:19:22;8.40;;;2.28;;
53971;SDS011;40530;53.062;6.078;2022-09-09T09:22:04;5.75;;;2.10;;
53971;SDS011;40530;53.062;6.078;2022-09-09T09:27:06;12.68;;;2.60;;
53971;SDS011;40530;53.062;6.078;2022-09-09T09:30:01;7.15;;;2.90;;
53971;SDS011;40530;53.062;6.078;2022-09-09T09:32:28;8.52;;;2.55;;
53971;SDS011;40530;53.062;6.078;2022-09-09T09:34:56;9.95;;;3.85;;
53971;SDS011;40530;53.062;6.078;2022-09-09T09:37:30;11.27;;;2.50;;
53971;SDS011;40530;53.062;6.078;2022-09-09T09:40:07;15.85;;;2.25;;
53971;SDS011;40530;53.062;6.078;2022-09-09T09:42:34;6.47;;;2.33;;
53971;SDS011;40530;53.062;6.078;2022-09-09T09:47:45;5.50;;;2.08;;
53971;SDS011;40530;53.062;6.078;2022-09-09T09:50:18;5.97;;;1.63;;
53971;SDS011;40530;53.062;6.078;2022-09-09T09:52:53;5.38;;;1.73;;
53971;SDS011;40530;53.062;6.078;2022-09-09T09:55:20;6.57;;;1.63;;
53971;SDS011;40530;53.062;6.078;2022-09-09T09:57:47;7.93;;;2.05;;
53971;SDS011;40530;53.062;6.078;2022-09-09T10:02:41;11.07;;;1.95;;
53971;SDS011;40530;53.062;6.078;2022-09-09T10:05:24;5.68;;;1.48;;
53971;SDS011;40530;53.062;6.078;2022-09-09T10:10:32;7.82;;;1.70;;
53971;SDS011;40530;53.062;6.078;2022-09-09T10:21:00;11.70;;;2.00;;
53971;SDS011;40530;53.062;6.078;2022-09-09T10:28:39;7.85;;;1.65;;
53971;SDS011;40530;53.062;6.078;2022-09-09T10:31:12;8.90;;;1.50;;
53971;SDS011;40530;53.062;6.078;2022-09-09T10:36:27;25.00;;;16.70;;
53971;SDS011;40530;53.062;6.078;2022-09-09T10:39:04;6.82;;;1.75;;
53971;SDS011;40530;53.062;6.078;2022-09-09T10:57:23;7.95;;;1.30;;
53971;SDS011;40530;53.062;6.078;2022-09-09T10:59:57;2.60;;;0.75;;
53971;SDS011;40530;53.062;6.078;2022-09-09T11:02:30;7.15;;;1.33;;
53971;SDS011;40530;53.062;6.078;2022-09-09T11:07:41;8.70;;;1.85;;
53971;SDS011;40530;53.062;6.078;2022-09-09T11:12:53;8.05;;;2.15;;
53971;SDS011;40530;53.062;6.078;2022-09-09T11:15:23;6.32;;;1.30;;
53971;SDS011;40530;53.062;6.078;2022-09-09T11:17:56;4.38;;;1.20;;
53971;SDS011;40530;53.062;6.078;2022-09-09T11:20:25;6.13;;;1.15;;
53971;SDS011;40530;53.062;6.078;2022-09-09T11:22:54;6.82;;;1.42;;
53971;SDS011;40530;53.062;6.078;2022-09-09T11:25:35;5.43;;;1.40;;
53971;SDS011;40530;53.062;6.078;2022-09-09T11:28:19;7.15;;;1.33;;
53971;SDS011;40530;53.062;6.078;2022-09-09T11:33:41;5.03;;;1.20;;
53971;SDS011;40530;53.062;6.078;2022-09-09T11:41:04;11.35;;;1.90;;
53971;SDS011;40530;53.062;6.078;2022-09-09T11:43:44;8.75;;;1.55;;
53971;SDS011;40530;53.062;6.078;2022-09-09T11:46:12;6.85;;;1.70;;
53971;SDS011;40530;53.062;6.078;2022-09-09T11:48:41;8.40;;;1.50;;
53971;SDS011;40530;53.062;6.078;2022-09-09T11:51:24;9.23;;;1.77;;
53971;SDS011;40530;53.062;6.078;2022-09-09T11:53:55;6.97;;;1.45;;
53971;SDS011;40530;53.062;6.078;2022-09-09T11:56:29;5.90;;;1.73;;
53971;SDS011;40530;53.062;6.078;2022-09-09T11:58:57;8.07;;;2.03;;
53971;SDS011;40530;53.062;6.078;2022-09-09T12:04:05;9.10;;;1.45;;
53971;SDS011;40530;53.062;6.078;2022-09-09T12:06:33;10.13;;;1.70;;
53971;SDS011;40530;53.062;6.078;2022-09-09T12:11:53;11.73;;;1.80;;
53971;SDS011;40530;53.062;6.078;2022-09-09T12:14:38;8.77;;;1.63;;
53971;SDS011;40530;53.062;6.078;2022-09-09T12:17:44;8.30;;;1.70;;
53971;SDS011;40530;53.062;6.078;2022-09-09T12:20:16;9.57;;;1.60;;
53971;SDS011;40530;53.062;6.078;2022-09-09T12:23:04;6.22;;;1.58;;
53971;SDS011;40530;53.062;6.078;2022-09-09T12:31:25;8.88;;;1.70;;
53971;SDS011;40530;53.062;6.078;2022-09-09T12:33:24;7.15;;;1.48;;
53971;SDS011;40530;53.062;6.078;2022-09-09T12:35:59;10.57;;;1.55;;
53971;SDS011;40530;53.062;6.078;2022-09-09T12:38:32;7.13;;;1.60;;
53971;SDS011;40530;53.062;6.078;2022-09-09T12:41:00;6.97;;;1.60;;
53971;SDS011;40530;53.062;6.078;2022-09-09T12:43:27;7.60;;;1.42;;
53971;SDS011;40530;53.062;6.078;2022-09-09T12:45:55;5.32;;;1.77;;
53971;SDS011;40530;53.062;6.078;2022-09-09T12:48:25;6.07;;;1.50;;
53971;SDS011;40530;53.062;6.078;2022-09-09T12:50:58;7.43;;;1.60;;
53971;SDS011;40530;53.062;6.078;2022-09-09T12:53:26;4.78;;;1.90;;
53971;SDS011;40530;53.062;6.078;2022-09-09T12:55:55;6.50;;;1.13;;
53971;SDS011;40530;53.062;6.078;2022-09-09T12:58:23;5.90;;;1.17;;
53971;SDS011;40530;53.062;6.078;2022-09-09T13:00:50;6.32;;;1.35;;
53971;SDS011;40530;53.062;6.078;2022-09-09T13:03:17;5.28;;;1.23;;
53971;SDS011;40530;53.062;6.078;2022-09-09T13:05:45;4.60;;;1.30;;
53971;SDS011;40530;53.062;6.078;2022-09-09T13:08:12;11.68;;;1.80;;
53971;SDS011;40530;53.062;6.078;2022-09-09T13:13:18;9.70;;;1.92;;
53971;SDS011;40530;53.062;6.078;2022-09-09T13:15:52;9.25;;;1.58;;
53971;SDS011;40530;53.062;6.078;2022-09-09T13:18:19;9.38;;;1.70;;
53971;SDS011;40530;53.062;6.078;2022-09-09T13:20:49;5.55;;;1.20;;
53971;SDS011;40530;53.062;6.078;2022-09-09T13:23:16;8.13;;;2.35;;
53971;SDS011;40530;53.062;6.078;2022-09-09T13:25:57;10.45;;;2.53;;
53971;SDS011;40530;53.062;6.078;2022-09-09T13:28:26;7.57;;;1.80;;
53971;SDS011;40530;53.062;6.078;2022-09-09T13:31:03;7.45;;;1.55;;
53971;SDS011;40530;53.062;6.078;2022-09-09T13:33:33;7.28;;;1.65;;
53971;SDS011;40530;53.062;6.078;2022-09-09T13:38:32;8.35;;;1.80;;
53971;SDS011;40530;53.062;6.078;2022-09-09T13:43:28;5.47;;;1.27;;
53971;SDS011;40530;53.062;6.078;2022-09-09T13:46:05;4.55;;;1.08;;
53971;SDS011;40530;53.062;6.078;2022-09-09T13:48:31;3.83;;;0.85;;
53971;SDS011;40530;53.062;6.078;2022-09-09T13:51:02;6.13;;;1.55;;
53971;SDS011;40530;53.062;6.078;2022-09-09T13:53:30;4.00;;;1.20;;
53971;SDS011;40530;53.062;6.078;2022-09-09T13:55:56;10.77;;;6.85;;
53971;SDS011;40530;53.062;6.078;2022-09-09T13:58:23;5.07;;;1.13;;
53971;SDS011;40530;53.062;6.078;2022-09-09T14:00:50;4.82;;;1.00;;
53971;SDS011;40530;53.062;6.078;2022-09-09T14:03:16;3.03;;;0.82;;
53971;SDS011;40530;53.062;6.078;2022-09-09T14:05:42;2.83;;;0.65;;
53971;SDS011;40530;53.062;6.078;2022-09-09T14:08:09;3.40;;;0.80;;
53971;SDS011;40530;53.062;6.078;2022-09-09T14:10:38;3.67;;;0.77;;
53971;SDS011;40530;53.062;6.078;2022-09-09T14:13:04;4.38;;;0.85;;
53971;SDS011;40530;53.062;6.078;2022-09-09T14:15:30;3.95;;;0.90;;
53971;SDS011;40530;53.062;6.078;2022-09-09T14:17:56;3.50;;;0.65;;
53971;SDS011;40530;53.062;6.078;2022-09-09T14:20:23;4.57;;;0.90;;
53971;SDS011;40530;53.062;6.078;2022-09-09T14:22:49;2.92;;;0.70;;
53971;SDS011;40530;53.062;6.078;2022-09-09T14:25:15;4.72;;;1.00;;
53971;SDS011;40530;53.062;6.078;2022-09-09T14:27:41;4.50;;;0.93;;
53971;SDS011;40530;53.062;6.078;2022-09-09T14:30:07;2.40;;;0.80;;
53971;SDS011;40530;53.062;6.078;2022-09-09T14:32:34;4.28;;;1.13;;
53971;SDS011;40530;53.062;6.078;2022-09-09T14:35:00;4.10;;;1.02;;
53971;SDS011;40530;53.062;6.078;2022-09-09T14:37:26;2.47;;;1.00;;
53971;SDS011;40530;53.062;6.078;2022-09-09T14:39:52;4.10;;;0.98;;
53971;SDS011;40530;53.062;6.078;2022-09-09T14:42:18;6.32;;;2.17;;
53971;SDS011;40530;53.062;6.078;2022-09-09T14:44:45;16.10;;;2.63;;
53971;SDS011;40530;53.062;6.078;2022-09-09T14:47:11;6.05;;;1.33;;
53971;SDS011;40530;53.062;6.078;2022-09-09T14:49:37;4.45;;;1.27;;
53971;SDS011;40530;53.062;6.078;2022-09-09T14:52:03;6.03;;;1.33;;
53971;SDS011;40530;53.062;6.078;2022-09-09T14:54:30;3.45;;;1.20;;
53971;SDS011;40530;53.062;6.078;2022-09-09T14:56:57;4.35;;;1.35;;
53971;SDS011;40530;53.062;6.078;2022-09-09T14:59:23;9.27;;;1.50;;
53971;SDS011;40530;53.062;6.078;2022-09-09T15:01:49;2.60;;;0.95;;
53971;SDS011;40530;53.062;6.078;2022-09-09T15:04:15;3.53;;;1.27;;
53971;SDS011;40530;53.062;6.078;2022-09-09T15:06:45;4.75;;;1.10;;
53971;SDS011;40530;53.062;6.078;2022-09-09T15:09:13;5.03;;;1.02;;
53971;SDS011;40530;53.062;6.078;2022-09-09T15:11:39;5.82;;;1.42;;
53971;SDS011;40530;53.062;6.078;2022-09-09T15:14:06;3.17;;;1.10;;
53971;SDS011;40530;53.062;6.078;2022-09-09T15:16:32;3.15;;;1.20;;
53971;SDS011;40530;53.062;6.078;2022-09-09T15:18:59;5.32;;;1.02;;
53971;SDS011;40530;53.062;6.078;2022-09-09T15:21:26;5.50;;;1.20;;
53971;SDS011;40530;53.062;6.078;2022-09-09T15:23:53;5.25;;;2.17;;
53971;SDS011;40530;53.062;6.078;2022-09-09T15:26:19;2.55;;;1.13;;
53971;SDS011;40530;53.062;6.078;2022-09-09T15:28:46;3.35;;;1.27;;
53971;SDS011;40530;53.062;6.078;2022-09-09T15:31:14;2.30;;;0.93;;
53971;SDS011;40530;53.062;6.078;2022-09-09T15:33:45;2.50;;;1.02;;
53971;SDS011;40530;53.062;6.078;2022-09-09T15:36:14;3.28;;;1.13;;
53971;SDS011;40530;53.062;6.078;2022-09-09T15:38:47;3.97;;;1.30;;
53971;SDS011;40530;53.062;6.078;2022-09-09T15:41:13;5.15;;;0.90;;
53971;SDS011;40530;53.062;6.078;2022-09-09T15:43:42;2.72;;;1.00;;
53971;SDS011;40530;53.062;6.078;2022-09-09T15:48:57;4.93;;;0.98;;
53971;SDS011;40530;53.062;6.078;2022-09-09T15:51:24;2.97;;;1.10;;
53971;SDS011;40530;53.062;6.078;2022-09-09T15:53:54;2.72;;;1.00;;
53971;SDS011;40530;53.062;6.078;2022-09-09T15:56:22;3.75;;;1.25;;
53971;SDS011;40530;53.062;6.078;2022-09-09T15:58:48;4.35;;;1.10;;
53971;SDS011;40530;53.062;6.078;2022-09-09T16:01:14;5.40;;;1.58;;
53971;SDS011;40530;53.062;6.078;2022-09-09T16:03:45;8.35;;;1.80;;
53971;SDS011;40530;53.062;6.078;2022-09-09T16:06:13;3.63;;;1.25;;
53971;SDS011;40530;53.062;6.078;2022-09-09T16:08:40;2.00;;;0.80;;
53971;SDS011;40530;53.062;6.078;2022-09-09T16:11:12;5.18;;;1.50;;
53971;SDS011;40530;53.062;6.078;2022-09-09T16:13:40;3.67;;;1.45;;
53971;SDS011;40530;53.062;6.078;2022-09-09T16:16:06;2.67;;;1.05;;
53971;SDS011;40530;53.062;6.078;2022-09-09T16:18:33;5.28;;;1.10;;
53971;SDS011;40530;53.062;6.078;2022-09-09T16:21:00;6.85;;;1.13;;
53971;SDS011;40530;53.062;6.078;2022-09-09T16:23:26;5.65;;;1.00;;
53971;SDS011;40530;53.062;6.078;2022-09-09T16:25:53;4.68;;;1.20;;
53971;SDS011;40530;53.062;6.078;2022-09-09T16:28:19;5.15;;;1.15;;
53971;SDS011;40530;53.062;6.078;2022-09-09T16:30:46;5.22;;;1.48;;
53971;SDS011;40530;53.062;6.078;2022-09-09T16:33:12;4.40;;;1.45;;
53971;SDS011;40530;53.062;6.078;2022-09-09T16:35:41;4.97;;;2.20;;
53971;SDS011;40530;53.062;6.078;2022-09-09T16:38:07;6.78;;;1.52;;
53971;SDS011;40530;53.062;6.078;2022-09-09T16:40:33;6.15;;;1.52;;
53971;SDS011;40530;53.062;6.078;2022-09-09T16:43:00;3.75;;;1.15;;
53971;SDS011;40530;53.062;6.078;2022-09-09T16:45:26;7.20;;;1.55;;
53971;SDS011;40530;53.062;6.078;2022-09-09T16:47:52;6.22;;;1.73;;
53971;SDS011;40530;53.062;6.078;2022-09-09T16:50:18;4.18;;;1.52;;
53971;SDS011;40530;53.062;6.078;2022-09-09T16:52:45;6.82;;;1.38;;
53971;SDS011;40530;53.062;6.078;2022-09-09T16:55:11;6.15;;;1.40;;
53971;SDS011;40530;53.062;6.078;2022-09-09T16:57:37;5.95;;;1.70;;
53971;SDS011;40530;53.062;6.078;2022-09-09T17:00:03;4.38;;;1.20;;